sensor_id;sensor_type;location;lat;lon;timestamp;pressure;altitude;pressure_sealevel;temperature;humidity
13581;BME280;6861;46.170;7.222;2023-03-16T00:02:15;96231.28;;;6.37;40.76
13581;BME280;6861;46.170;7.222;2023-03-16T00:04:44;96228.91;;;6.36;40.50
13581;BME280;6861;46.170;7.222;2023-03-16T00:07:15;96230.03;;;6.40;40.75
13581;BME280;6861;46.170;7.222;2023-03-16T00:09:43;96234.53;;;6.44;40.24
13581;BME280;6861;46.170;7.222;2023-03-16T00:12:13;96233.44;;;6.40;40.63
13581;BME280;6861;46.170;7.222;2023-03-16T00:14:43;96231.84;;;6.39;40.25
13581;BME280;6861;46.170;7.222;2023-03-16T00:17:13;96237.28;;;6.38;40.24
13581;BME280;6861;46.170;7.222;2023-03-16T00:19:45;96246.88;;;6.37;41.15
13581;BME280;6861;46.170;7.222;2023-03-16T00:22:15;96243.16;;;6.33;40.92
13581;BME280;6861;46.170;7.222;2023-03-16T00:24:45;96242.59;;;6.31;41.41
13581;BME280;6861;46.170;7.222;2023-03-16T00:27:14;96234.38;;;6.22;41.24
13581;BME280;6861;46.170;7.222;2023-03-16T00:29:44;96244.91;;;6.16;42.12
13581;BME280;6861;46.170;7.222;2023-03-16T00:32:15;96240.16;;;6.13;41.48
13581;BME280;6861;46.170;7.222;2023-03-16T00:34:44;96228.97;;;6.12;42.12
13581;BME280;6861;46.170;7.222;2023-03-16T00:37:15;96228.75;;;6.14;41.88
13581;BME280;6861;46.170;7.222;2023-03-16T00:39:44;96232.47;;;6.18;42.05
13581;BME280;6861;46.170;7.222;2023-03-16T00:42:14;96224.78;;;6.23;41.47
13581;BME280;6861;46.170;7.222;2023-03-16T00:44:43;96227.94;;;6.25;41.63
13581;BME280;6861;46.170;7.222;2023-03-16T00:47:11;96230.41;;;6.32;41.97
13581;BME280;6861;46.170;7.222;2023-03-16T00:49:42;96224.50;;;6.36;41.69
13581;BME280;6861;46.170;7.222;2023-03-16T00:52:11;96223.50;;;6.37;41.49
13581;BME280;6861;46.170;7.222;2023-03-16T00:54:43;96220.44;;;6.40;41.85
13581;BME280;6861;46.170;7.222;2023-03-16T00:57:12;96225.63;;;6.40;41.25
13581;BME280;6861;46.170;7.222;2023-03-16T00:59:42;96225.31;;;6.37;42.02
13581;BME280;6861;46.170;7.222;2023-03-16T01:02:10;96224.50;;;6.36;41.65
13581;BME280;6861;46.170;7.222;2023-03-16T01:04:39;96231.28;;;6.37;41.36
13581;BME280;6861;46.170;7.222;2023-03-16T01:07:07;96227.34;;;6.35;41.26
13581;BME280;6861;46.170;7.222;2023-03-16T01:09:37;96231.28;;;6.37;41.81
13581;BME280;6861;46.170;7.222;2023-03-16T01:12:09;96240.09;;;6.36;41.38
13581;BME280;6861;46.170;7.222;2023-03-16T01:14:38;96235.94;;;6.35;41.94
13581;BME280;6861;46.170;7.222;2023-03-16T01:17:08;96241.69;;;6.37;41.66
13581;BME280;6861;46.170;7.222;2023-03-16T01:19:36;96235.25;;;6.40;41.36
13581;BME280;6861;46.170;7.222;2023-03-16T01:22:05;96235.00;;;6.41;41.45
13581;BME280;6861;46.170;7.222;2023-03-16T01:24:35;96241.22;;;6.40;41.77
13581;BME280;6861;46.170;7.222;2023-03-16T01:27:03;96242.16;;;6.34;41.46
13581;BME280;6861;46.170;7.222;2023-03-16T01:29:33;96241.25;;;6.29;42.13
13581;BME280;6861;46.170;7.222;2023-03-16T01:32:02;96232.25;;;6.19;42.23
13581;BME280;6861;46.170;7.222;2023-03-16T01:34:31;96234.19;;;6.12;41.98
13581;BME280;6861;46.170;7.222;2023-03-16T01:37:00;96232.75;;;6.05;42.48
13581;BME280;6861;46.170;7.222;2023-03-16T01:39:28;96226.44;;;6.01;42.84
13581;BME280;6861;46.170;7.222;2023-03-16T01:41:57;96233.22;;;6.02;42.51
13581;BME280;6861;46.170;7.222;2023-03-16T01:44:26;96222.16;;;5.95;42.70
13581;BME280;6861;46.170;7.222;2023-03-16T01:46:57;96216.25;;;5.87;42.85
13581;BME280;6861;46.170;7.222;2023-03-16T01:49:28;96218.28;;;5.85;42.54
13581;BME280;6861;46.170;7.222;2023-03-16T01:52:02;96211.53;;;5.84;42.89
13581;BME280;6861;46.170;7.222;2023-03-16T01:54:34;96205.53;;;5.84;42.54
13581;BME280;6861;46.170;7.222;2023-03-16T01:57:06;96213.56;;;5.82;42.82
13581;BME280;6861;46.170;7.222;2023-03-16T01:59:37;96209.94;;;5.83;42.73
13581;BME280;6861;46.170;7.222;2023-03-16T02:02:08;96206.34;;;5.84;42.88
13581;BME280;6861;46.170;7.222;2023-03-16T02:04:42;96202.72;;;5.85;42.81
13581;BME280;6861;46.170;7.222;2023-03-16T02:07:12;96202.94;;;5.84;43.09
13581;BME280;6861;46.170;7.222;2023-03-16T02:09:45;96203.72;;;5.84;42.87
13581;BME280;6861;46.170;7.222;2023-03-16T02:12:15;96208.94;;;5.84;42.79
13581;BME280;6861;46.170;7.222;2023-03-16T02:14:45;96201.94;;;5.85;43.15
13581;BME280;6861;46.170;7.222;2023-03-16T02:17:18;96197.41;;;5.80;43.07
13581;BME280;6861;46.170;7.222;2023-03-16T02:19:54;96199.22;;;5.80;42.93
13581;BME280;6861;46.170;7.222;2023-03-16T02:22:26;96203.63;;;5.79;42.99
13581;BME280;6861;46.170;7.222;2023-03-16T02:24:54;96203.28;;;5.76;43.09
13581;BME280;6861;46.170;7.222;2023-03-16T02:27:28;96198.88;;;5.76;43.21
13581;BME280;6861;46.170;7.222;2023-03-16T02:30:12;96201.72;;;5.75;43.25
13581;BME280;6861;46.170;7.222;2023-03-16T02:32:41;96201.38;;;5.71;43.16
13581;BME280;6861;46.170;7.222;2023-03-16T02:35:11;96202.84;;;5.67;42.83
13581;BME280;6861;46.170;7.222;2023-03-16T02:37:39;96197.09;;;5.65;43.37
13581;BME280;6861;46.170;7.222;2023-03-16T02:40:20;96193.94;;;5.63;43.55
13581;BME280;6861;46.170;7.222;2023-03-16T02:42:53;96195.97;;;5.61;43.65
13581;BME280;6861;46.170;7.222;2023-03-16T02:45:26;96189.19;;;5.60;43.35
13581;BME280;6861;46.170;7.222;2023-03-16T02:48:00;96191.22;;;5.58;43.47
13581;BME280;6861;46.170;7.222;2023-03-16T02:50:30;96178.59;;;5.50;43.64
13581;BME280;6861;46.170;7.222;2023-03-16T02:52:58;96189.88;;;5.44;43.85
13581;BME280;6861;46.170;7.222;2023-03-16T02:55:26;96190.78;;;5.38;43.97
13581;BME280;6861;46.170;7.222;2023-03-16T02:57:54;96184.47;;;5.34;43.98
13581;BME280;6861;46.170;7.222;2023-03-16T03:00:24;96184.34;;;5.28;44.11
13581;BME280;6861;46.170;7.222;2023-03-16T03:02:52;96194.63;;;5.23;44.23
13581;BME280;6861;46.170;7.222;2023-03-16T03:05:20;96197.78;;;5.25;44.48
13581;BME280;6861;46.170;7.222;2023-03-16T03:07:49;96191.00;;;5.24;44.24
13581;BME280;6861;46.170;7.222;2023-03-16T03:10:17;96187.41;;;5.25;44.19
13581;BME280;6861;46.170;7.222;2023-03-16T03:12:45;96188.97;;;5.26;44.53
13581;BME280;6861;46.170;7.222;2023-03-16T03:15:15;96190.56;;;5.27;44.31
13581;BME280;6861;46.170;7.222;2023-03-16T03:17:46;96192.69;;;5.31;44.38
13581;BME280;6861;46.170;7.222;2023-03-16T03:20:14;96187.50;;;5.31;44.47
13581;BME280;6861;46.170;7.222;2023-03-16T03:22:45;96192.47;;;5.32;44.19
13581;BME280;6861;46.170;7.222;2023-03-16T03:25:16;96196.31;;;5.30;44.53
13581;BME280;6861;46.170;7.222;2023-03-16T03:27:45;96194.16;;;5.26;44.48
13581;BME280;6861;46.170;7.222;2023-03-16T03:30:15;96193.59;;;5.24;44.62
13581;BME280;6861;46.170;7.222;2023-03-16T03:32:45;96197.44;;;5.22;44.66
13581;BME280;6861;46.170;7.222;2023-03-16T03:35:14;96192.38;;;5.15;44.84
13581;BME280;6861;46.170;7.222;2023-03-16T03:37:42;96195.44;;;5.12;45.23
13581;BME280;6861;46.170;7.222;2023-03-16T03:40:12;96189.66;;;5.10;45.18
13581;BME280;6861;46.170;7.222;2023-03-16T03:42:41;96192.94;;;5.06;45.49
13581;BME280;6861;46.170;7.222;2023-03-16T03:45:10;96195.75;;;5.04;45.28
13581;BME280;6861;46.170;7.222;2023-03-16T03:47:39;96194.41;;;5.02;45.63
13581;BME280;6861;46.170;7.222;2023-03-16T03:50:11;96196.66;;;4.98;45.32
13581;BME280;6861;46.170;7.222;2023-03-16T03:52:39;96197.66;;;4.97;45.47
13581;BME280;6861;46.170;7.222;2023-03-16T03:55:08;96203.84;;;4.96;45.68
13581;BME280;6861;46.170;7.222;2023-03-16T03:57:36;96204.28;;;4.93;45.46
13581;BME280;6861;46.170;7.222;2023-03-16T04:00:06;96203.59;;;4.86;45.41
13581;BME280;6861;46.170;7.222;2023-03-16T04:02:37;96212.41;;;4.85;45.99
13581;BME280;6861;46.170;7.222;2023-03-16T04:05:05;96209.25;;;4.83;45.73
13581;BME280;6861;46.170;7.222;2023-03-16T04:07:35;96218.03;;;4.82;45.81
13581;BME280;6861;46.170;7.222;2023-03-16T04:10:05;96220.50;;;4.77;45.77
13581;BME280;6861;46.170;7.222;2023-03-16T04:12:33;96214.16;;;4.73;45.62
13581;BME280;6861;46.170;7.222;2023-03-16T04:15:02;96227.78;;;4.68;46.33
13581;BME280;6861;46.170;7.222;2023-03-16T04:17:30;96222.69;;;4.61;46.24
13581;BME280;6861;46.170;7.222;2023-03-16T04:20:00;96218.53;;;4.60;46.27
13581;BME280;6861;46.170;7.222;2023-03-16T04:22:30;96213.91;;;4.63;45.95
13581;BME280;6861;46.170;7.222;2023-03-16T04:25:00;96212.91;;;4.64;46.60
13581;BME280;6861;46.170;7.222;2023-03-16T04:27:29;96211.88;;;4.65;46.55
13581;BME280;6861;46.170;7.222;2023-03-16T04:30:02;96201.53;;;4.65;46.21
13581;BME280;6861;46.170;7.222;2023-03-16T04:32:31;96205.69;;;4.66;46.07
13581;BME280;6861;46.170;7.222;2023-03-16T04:34:59;96212.31;;;4.61;45.98
13581;BME280;6861;46.170;7.222;2023-03-16T04:37:27;96213.78;;;4.57;46.42
13581;BME280;6861;46.170;7.222;2023-03-16T04:39:55;96218.47;;;4.49;46.92
13581;BME280;6861;46.170;7.222;2023-03-16T04:42:25;96213.94;;;4.44;47.15
13581;BME280;6861;46.170;7.222;2023-03-16T04:44:53;96217.78;;;4.42;47.01
13581;BME280;6861;46.170;7.222;2023-03-16T04:47:21;96219.00;;;4.39;47.02
13581;BME280;6861;46.170;7.222;2023-03-16T04:49:49;96224.63;;;4.36;46.77
13581;BME280;6861;46.170;7.222;2023-03-16T04:52:18;96214.03;;;4.38;46.94
13581;BME280;6861;46.170;7.222;2023-03-16T04:54:46;96208.28;;;4.36;46.70
13581;BME280;6861;46.170;7.222;2023-03-16T04:57:14;96211.09;;;4.34;46.42
13581;BME280;6861;46.170;7.222;2023-03-16T04:59:46;96212.66;;;4.35;47.31
13581;BME280;6861;46.170;7.222;2023-03-16T05:02:14;96212.25;;;4.38;46.60
13581;BME280;6861;46.170;7.222;2023-03-16T05:04:45;96213.38;;;4.42;46.43
13581;BME280;6861;46.170;7.222;2023-03-16T05:07:13;96218.56;;;4.42;47.30
13581;BME280;6861;46.170;7.222;2023-03-16T05:09:41;96225.91;;;4.45;47.13
13581;BME280;6861;46.170;7.222;2023-03-16T05:12:09;96225.91;;;4.45;47.37
13581;BME280;6861;46.170;7.222;2023-03-16T05:14:38;96220.81;;;4.39;47.62
13581;BME280;6861;46.170;7.222;2023-03-16T05:17:07;96218.88;;;4.34;47.07
13581;BME280;6861;46.170;7.222;2023-03-16T05:19:35;96219.44;;;4.36;46.83
13581;BME280;6861;46.170;7.222;2023-03-16T05:22:03;96234.53;;;4.39;47.13
13581;BME280;6861;46.170;7.222;2023-03-16T05:24:32;96230.94;;;4.40;47.30
13581;BME280;6861;46.170;7.222;2023-03-16T05:27:00;96230.94;;;4.40;47.47
13581;BME280;6861;46.170;7.222;2023-03-16T05:29:29;96233.75;;;4.39;46.88
13581;BME280;6861;46.170;7.222;2023-03-16T05:31:57;96239.28;;;4.42;47.47
13581;BME280;6861;46.170;7.222;2023-03-16T05:34:27;96238.84;;;4.45;47.48
13581;BME280;6861;46.170;7.222;2023-03-16T05:36:55;96235.81;;;4.48;47.24
13581;BME280;6861;46.170;7.222;2023-03-16T05:39:23;96241.22;;;4.47;46.87
13581;BME280;6861;46.170;7.222;2023-03-16T05:41:51;96245.75;;;4.51;46.75
13581;BME280;6861;46.170;7.222;2023-03-16T05:44:20;96242.16;;;4.52;47.20
13581;BME280;6861;46.170;7.222;2023-03-16T05:46:48;96240.00;;;4.49;46.68
13581;BME280;6861;46.170;7.222;2023-03-16T05:49:17;96246.63;;;4.45;47.34
13581;BME280;6861;46.170;7.222;2023-03-16T05:51:46;96264.97;;;4.44;47.57
13581;BME280;6861;46.170;7.222;2023-03-16T05:54:15;96266.91;;;4.48;47.33
13581;BME280;6861;46.170;7.222;2023-03-16T05:56:43;96253.88;;;4.55;46.72
13581;BME280;6861;46.170;7.222;2023-03-16T05:59:12;96255.47;;;4.56;47.20
13581;BME280;6861;46.170;7.222;2023-03-16T06:01:40;96245.88;;;4.56;47.46
13581;BME280;6861;46.170;7.222;2023-03-16T06:04:08;96249.41;;;4.62;47.06
13581;BME280;6861;46.170;7.222;2023-03-16T06:06:37;96251.34;;;4.67;46.93
13581;BME280;6861;46.170;7.222;2023-03-16T06:09:06;96265.22;;;4.72;46.84
13581;BME280;6861;46.170;7.222;2023-03-16T06:11:34;96278.31;;;4.77;46.76
13581;BME280;6861;46.170;7.222;2023-03-16T06:14:03;96282.69;;;4.77;47.03
13581;BME280;6861;46.170;7.222;2023-03-16T06:16:31;96275.16;;;4.75;46.89
13581;BME280;6861;46.170;7.222;2023-03-16T06:18:59;96261.03;;;4.71;47.05
13581;BME280;6861;46.170;7.222;2023-03-16T06:21:27;96261.97;;;4.77;46.72
13581;BME280;6861;46.170;7.222;2023-03-16T06:23:55;96275.50;;;4.79;46.90
13581;BME280;6861;46.170;7.222;2023-03-16T06:26:24;96280.09;;;4.77;46.91
13581;BME280;6861;46.170;7.222;2023-03-16T06:28:52;96298.81;;;4.79;47.24
13581;BME280;6861;46.170;7.222;2023-03-16T06:31:21;96300.53;;;4.85;47.29
13581;BME280;6861;46.170;7.222;2023-03-16T06:33:49;96299.88;;;4.89;46.48
13581;BME280;6861;46.170;7.222;2023-03-16T06:36:17;96298.78;;;4.97;46.42
13581;BME280;6861;46.170;7.222;2023-03-16T06:38:45;96302.22;;;5.09;46.38
13581;BME280;6861;46.170;7.222;2023-03-16T06:41:13;96302.00;;;5.22;46.36
13581;BME280;6861;46.170;7.222;2023-03-16T06:43:42;96289.72;;;5.30;46.40
13581;BME280;6861;46.170;7.222;2023-03-16T06:46:10;96285.09;;;5.32;46.30
13581;BME280;6861;46.170;7.222;2023-03-16T06:48:39;96292.56;;;5.40;46.08
13581;BME280;6861;46.170;7.222;2023-03-16T06:51:07;96297.84;;;5.45;46.06
13581;BME280;6861;46.170;7.222;2023-03-16T06:53:35;96292.78;;;5.50;45.88
13581;BME280;6861;46.170;7.222;2023-03-16T06:56:04;96289.41;;;5.61;45.72
13581;BME280;6861;46.170;7.222;2023-03-16T06:58:32;96290.09;;;5.68;45.60
13581;BME280;6861;46.170;7.222;2023-03-16T07:01:02;96288.19;;;5.75;45.67
13581;BME280;6861;46.170;7.222;2023-03-16T07:03:30;96281.88;;;5.83;45.49
13581;BME280;6861;46.170;7.222;2023-03-16T07:05:58;96281.53;;;5.79;45.15
13581;BME280;6861;46.170;7.222;2023-03-16T07:08:27;96286.50;;;5.69;45.61
13581;BME280;6861;46.170;7.222;2023-03-16T07:10:55;96284.34;;;5.54;45.38
13581;BME280;6861;46.170;7.222;2023-03-16T07:13:23;96282.63;;;5.37;46.02
13581;BME280;6861;46.170;7.222;2023-03-16T07:15:51;96285.53;;;5.28;46.24
13581;BME280;6861;46.170;7.222;2023-03-16T07:18:21;96280.22;;;5.23;46.12
13581;BME280;6861;46.170;7.222;2023-03-16T07:20:52;96270.97;;;5.27;46.18
13581;BME280;6861;46.170;7.222;2023-03-16T07:23:20;96274.13;;;5.30;46.44
13581;BME280;6861;46.170;7.222;2023-03-16T07:25:48;96274.50;;;5.45;46.41
13581;BME280;6861;46.170;7.222;2023-03-16T07:28:17;96269.78;;;5.65;46.09
13581;BME280;6861;46.170;7.222;2023-03-16T07:30:46;96261.44;;;5.86;45.46
13581;BME280;6861;46.170;7.222;2023-03-16T07:33:30;96268.91;;;5.95;45.82
13581;BME280;6861;46.170;7.222;2023-03-16T07:35:59;96262.84;;;6.17;45.28
13581;BME280;6861;46.170;7.222;2023-03-16T07:38:30;96270.69;;;6.46;45.07
13581;BME280;6861;46.170;7.222;2023-03-16T07:40:59;96271.41;;;6.70;44.56
13581;BME280;6861;46.170;7.222;2023-03-16T07:43:27;96276.66;;;6.86;44.70
13581;BME280;6861;46.170;7.222;2023-03-16T07:45:56;96268.31;;;7.01;44.25
13581;BME280;6861;46.170;7.222;2023-03-16T07:48:24;96267.31;;;7.19;43.99
13581;BME280;6861;46.170;7.222;2023-03-16T07:50:54;96279.72;;;7.29;43.53
13581;BME280;6861;46.170;7.222;2023-03-16T07:53:22;96269.94;;;7.69;43.07
13581;BME280;6861;46.170;7.222;2023-03-16T07:55:50;96269.66;;;8.48;41.32
13581;BME280;6861;46.170;7.222;2023-03-16T07:58:18;96246.28;;;9.12;41.14
13581;BME280;6861;46.170;7.222;2023-03-16T08:00:47;96258.56;;;9.85;40.06
13581;BME280;6861;46.170;7.222;2023-03-16T08:03:15;96265.06;;;10.98;39.10
13581;BME280;6861;46.170;7.222;2023-03-16T08:05:49;96253.59;;;12.99;36.47
13581;BME280;6861;46.170;7.222;2023-03-16T08:08:19;96240.28;;;14.11;34.54
13581;BME280;6861;46.170;7.222;2023-03-16T08:10:48;96221.06;;;13.87;34.26
13581;BME280;6861;46.170;7.222;2023-03-16T08:13:19;96224.94;;;13.94;34.18
13581;BME280;6861;46.170;7.222;2023-03-16T08:15:49;96241.78;;;14.65;33.75
13581;BME280;6861;46.170;7.222;2023-03-16T08:18:24;96236.69;;;16.72;31.69
13581;BME280;6861;46.170;7.222;2023-03-16T08:20:53;96235.56;;;17.45;30.55
13581;BME280;6861;46.170;7.222;2023-03-16T08:23:23;96229.41;;;17.58;29.41
13581;BME280;6861;46.170;7.222;2023-03-16T08:25:52;96224.38;;;17.48;29.68
13581;BME280;6861;46.170;7.222;2023-03-16T08:28:20;96225.03;;;18.07;29.46
13581;BME280;6861;46.170;7.222;2023-03-16T08:30:50;96219.88;;;19.62;27.65
13581;BME280;6861;46.170;7.222;2023-03-16T08:33:19;96223.22;;;21.48;25.60
13581;BME280;6861;46.170;7.222;2023-03-16T08:35:49;96213.56;;;22.62;24.42
13581;BME280;6861;46.170;7.222;2023-03-16T08:38:17;96206.41;;;23.46;23.43
13581;BME280;6861;46.170;7.222;2023-03-16T08:40:49;96202.81;;;24.30;22.37
13581;BME280;6861;46.170;7.222;2023-03-16T08:43:18;96200.97;;;24.84;21.89
13581;BME280;6861;46.170;7.222;2023-03-16T08:45:46;96190.81;;;24.24;21.84
13581;BME280;6861;46.170;7.222;2023-03-16T08:48:14;96202.66;;;24.07;21.77
13581;BME280;6861;46.170;7.222;2023-03-16T08:50:44;96201.34;;;24.16;21.81
13581;BME280;6861;46.170;7.222;2023-03-16T08:53:13;96199.31;;;25.15;20.71
13581;BME280;6861;46.170;7.222;2023-03-16T08:55:41;96193.69;;;26.54;19.41
13581;BME280;6861;46.170;7.222;2023-03-16T08:58:11;96185.13;;;27.34;18.09
13581;BME280;6861;46.170;7.222;2023-03-16T09:00:39;96180.38;;;27.98;18.44
13581;BME280;6861;46.170;7.222;2023-03-16T09:03:10;96178.19;;;28.73;17.64
13581;BME280;6861;46.170;7.222;2023-03-16T09:05:39;96180.06;;;28.65;16.95
13581;BME280;6861;46.170;7.222;2023-03-16T09:08:07;96167.38;;;28.59;16.93
13581;BME280;6861;46.170;7.222;2023-03-16T09:10:35;96168.09;;;28.52;16.81
13581;BME280;6861;46.170;7.222;2023-03-16T09:13:05;96164.44;;;28.89;16.43
13581;BME280;6861;46.170;7.222;2023-03-16T09:15:35;96161.63;;;29.76;16.00
13581;BME280;6861;46.170;7.222;2023-03-16T09:18:04;96165.41;;;30.78;15.38
13581;BME280;6861;46.170;7.222;2023-03-16T09:20:32;96162.69;;;31.65;15.10
13581;BME280;6861;46.170;7.222;2023-03-16T09:23:01;96149.84;;;32.28;14.32
13581;BME280;6861;46.170;7.222;2023-03-16T09:25:29;96147.88;;;32.32;13.88
13581;BME280;6861;46.170;7.222;2023-03-16T09:27:58;96155.06;;;32.49;14.25
13581;BME280;6861;46.170;7.222;2023-03-16T09:30:26;96151.94;;;32.51;14.06
13581;BME280;6861;46.170;7.222;2023-03-16T09:32:57;96149.50;;;32.64;13.95
13581;BME280;6861;46.170;7.222;2023-03-16T09:35:25;96141.81;;;32.58;13.81
13581;BME280;6861;46.170;7.222;2023-03-16T09:37:53;96134.63;;;32.41;13.45
13581;BME280;6861;46.170;7.222;2023-03-16T09:40:32;96125.91;;;32.19;13.60
13581;BME280;6861;46.170;7.222;2023-03-16T09:43:14;96133.91;;;31.92;13.51
13581;BME280;6861;46.170;7.222;2023-03-16T09:45:48;96119.94;;;31.98;13.24
13581;BME280;6861;46.170;7.222;2023-03-16T09:48:20;96118.09;;;31.87;13.29
13581;BME280;6861;46.170;7.222;2023-03-16T09:50:52;96110.94;;;31.56;13.41
13581;BME280;6861;46.170;7.222;2023-03-16T09:53:24;96103.34;;;31.37;13.37
13581;BME280;6861;46.170;7.222;2023-03-16T09:55:59;96099.56;;;31.23;13.67
13581;BME280;6861;46.170;7.222;2023-03-16T09:58:29;96104.13;;;31.34;13.58
13581;BME280;6861;46.170;7.222;2023-03-16T10:01:02;96102.59;;;31.36;12.92
13581;BME280;6861;46.170;7.222;2023-03-16T10:03:53;96094.88;;;31.35;13.19
13581;BME280;6861;46.170;7.222;2023-03-16T10:06:26;96086.19;;;31.61;13.02
13581;BME280;6861;46.170;7.222;2023-03-16T10:08:59;96074.19;;;32.07;12.45
13581;BME280;6861;46.170;7.222;2023-03-16T10:11:30;96072.34;;;32.72;12.16
13581;BME280;6861;46.170;7.222;2023-03-16T10:14:04;96071.25;;;32.66;11.86
13581;BME280;6861;46.170;7.222;2023-03-16T10:16:46;96060.75;;;32.37;11.80
13581;BME280;6861;46.170;7.222;2023-03-16T10:19:20;96061.59;;;32.31;11.76
13581;BME280;6861;46.170;7.222;2023-03-16T10:21:51;96058.97;;;32.20;11.86
13581;BME280;6861;46.170;7.222;2023-03-16T10:24:28;96055.38;;;31.96;11.48
13581;BME280;6861;46.170;7.222;2023-03-16T10:27:05;96049.91;;;32.37;11.57
13581;BME280;6861;46.170;7.222;2023-03-16T10:29:35;96045.25;;;33.29;11.46
13581;BME280;6861;46.170;7.222;2023-03-16T10:32:11;96040.09;;;33.85;11.00
13581;BME280;6861;46.170;7.222;2023-03-16T10:34:42;96037.72;;;34.30;10.37
13581;BME280;6861;46.170;7.222;2023-03-16T10:37:13;96036.28;;;35.37;10.17
13581;BME280;6861;46.170;7.222;2023-03-16T10:39:41;96027.47;;;35.95;9.81
13581;BME280;6861;46.170;7.222;2023-03-16T10:42:14;96021.50;;;36.00;9.62
13581;BME280;6861;46.170;7.222;2023-03-16T10:44:43;96013.13;;;37.16;9.28
13581;BME280;6861;46.170;7.222;2023-03-16T10:47:16;96013.72;;;38.05;8.51
13581;BME280;6861;46.170;7.222;2023-03-16T10:49:46;96013.03;;;38.79;8.39
13581;BME280;6861;46.170;7.222;2023-03-16T10:52:19;96008.81;;;39.37;8.09
13581;BME280;6861;46.170;7.222;2023-03-16T10:54:49;96000.16;;;39.38;7.88
13581;BME280;6861;46.170;7.222;2023-03-16T10:57:26;95993.97;;;40.47;7.52
13581;BME280;6861;46.170;7.222;2023-03-16T11:00:00;95994.66;;;41.89;6.96
13581;BME280;6861;46.170;7.222;2023-03-16T11:02:42;95993.84;;;43.15;6.50
13581;BME280;6861;46.170;7.222;2023-03-16T11:05:18;95990.91;;;43.39;6.25
13581;BME280;6861;46.170;7.222;2023-03-16T11:07:57;95987.06;;;43.92;5.85
13581;BME280;6861;46.170;7.222;2023-03-16T11:10:32;95989.22;;;43.83;5.72
13581;BME280;6861;46.170;7.222;2023-03-16T11:13:12;95980.84;;;43.97;5.72
13581;BME280;6861;46.170;7.222;2023-03-16T11:15:46;95976.81;;;43.93;5.53
13581;BME280;6861;46.170;7.222;2023-03-16T11:18:27;95967.84;;;43.57;5.54
13581;BME280;6861;46.170;7.222;2023-03-16T11:21:02;95977.09;;;42.84;5.91
13581;BME280;6861;46.170;7.222;2023-03-16T11:23:34;95971.78;;;42.51;6.18
13581;BME280;6861;46.170;7.222;2023-03-16T11:26:11;95962.59;;;42.10;6.23
13581;BME280;6861;46.170;7.222;2023-03-16T11:28:47;95958.97;;;41.41;6.74
13581;BME280;6861;46.170;7.222;2023-03-16T11:31:22;95952.63;;;39.05;7.33
13581;BME280;6861;46.170;7.222;2023-03-16T11:33:54;95965.41;;;35.08;8.77
13581;BME280;6861;46.170;7.222;2023-03-16T11:36:34;95957.75;;;31.32;10.03
13581;BME280;6861;46.170;7.222;2023-03-16T11:39:11;95958.03;;;28.38;11.25
13581;BME280;6861;46.170;7.222;2023-03-16T11:41:52;95955.69;;;26.01;13.23
13581;BME280;6861;46.170;7.222;2023-03-16T11:44:32;95959.28;;;24.23;13.85
13581;BME280;6861;46.170;7.222;2023-03-16T11:47:12;95954.88;;;22.94;14.28
13581;BME280;6861;46.170;7.222;2023-03-16T11:49:54;95954.88;;;21.82;14.92
13581;BME280;6861;46.170;7.222;2023-03-16T11:52:35;95959.13;;;20.73;16.02
13581;BME280;6861;46.170;7.222;2023-03-16T11:55:21;95954.38;;;19.92;16.24
13581;BME280;6861;46.170;7.222;2023-03-16T11:57:59;95951.75;;;19.33;16.57
13581;BME280;6861;46.170;7.222;2023-03-16T12:00:36;95948.19;;;18.99;16.69
13581;BME280;6861;46.170;7.222;2023-03-16T12:03:26;95945.47;;;18.53;17.06
13581;BME280;6861;46.170;7.222;2023-03-16T12:05:59;95948.53;;;18.17;17.60
13581;BME280;6861;46.170;7.222;2023-03-16T12:09:02;95933.09;;;17.93;17.68
13581;BME280;6861;46.170;7.222;2023-03-16T12:11:37;95931.38;;;17.80;17.28
13581;BME280;6861;46.170;7.222;2023-03-16T12:14:13;95925.16;;;17.76;18.19
13581;BME280;6861;46.170;7.222;2023-03-16T12:16:47;95920.66;;;17.67;17.75
13581;BME280;6861;46.170;7.222;2023-03-16T12:19:23;95925.56;;;17.52;17.51
13581;BME280;6861;46.170;7.222;2023-03-16T12:22:04;95923.22;;;17.33;17.80
13581;BME280;6861;46.170;7.222;2023-03-16T12:24:41;95930.38;;;17.24;17.37
13581;BME280;6861;46.170;7.222;2023-03-16T12:27:13;95922.09;;;17.17;18.11
13581;BME280;6861;46.170;7.222;2023-03-16T12:30:01;95917.25;;;17.10;17.75
13581;BME280;6861;46.170;7.222;2023-03-16T12:32:38;95915.53;;;17.06;17.77
13581;BME280;6861;46.170;7.222;2023-03-16T12:35:23;95916.94;;;17.03;17.18
13581;BME280;6861;46.170;7.222;2023-03-16T12:38:02;95909.16;;;17.07;17.31
13581;BME280;6861;46.170;7.222;2023-03-16T12:40:38;95899.53;;;17.11;17.01
13581;BME280;6861;46.170;7.222;2023-03-16T12:43:24;95894.09;;;17.16;17.25
13581;BME280;6861;46.170;7.222;2023-03-16T12:46:02;95894.56;;;17.18;17.46
13581;BME280;6861;46.170;7.222;2023-03-16T12:48:37;95896.59;;;17.21;17.83
13581;BME280;6861;46.170;7.222;2023-03-16T12:51:07;95896.59;;;17.21;17.70
13581;BME280;6861;46.170;7.222;2023-03-16T12:53:43;95891.94;;;17.18;17.83
13581;BME280;6861;46.170;7.222;2023-03-16T12:56:15;95887.13;;;17.20;17.73
13581;BME280;6861;46.170;7.222;2023-03-16T12:58:46;95882.16;;;17.27;18.09
13581;BME280;6861;46.170;7.222;2023-03-16T13:01:17;95886.66;;;17.35;18.44
13581;BME280;6861;46.170;7.222;2023-03-16T13:03:48;95880.28;;;17.45;18.93
13581;BME280;6861;46.170;7.222;2023-03-16T13:06:21;95881.84;;;17.54;19.11
13581;BME280;6861;46.170;7.222;2023-03-16T13:08:54;95878.25;;;17.59;18.84
13581;BME280;6861;46.170;7.222;2023-03-16T13:11:27;95881.53;;;17.64;18.35
13581;BME280;6861;46.170;7.222;2023-03-16T13:14:07;95874.72;;;17.72;18.98
13581;BME280;6861;46.170;7.222;2023-03-16T13:16:37;95875.03;;;17.79;18.84
13581;BME280;6861;46.170;7.222;2023-03-16T13:19:26;95865.06;;;17.76;18.33
13581;BME280;6861;46.170;7.222;2023-03-16T13:22:04;95866.00;;;17.72;18.36
13581;BME280;6861;46.170;7.222;2023-03-16T13:24:36;95860.25;;;17.69;18.24
13581;BME280;6861;46.170;7.222;2023-03-16T13:27:18;95860.25;;;17.69;18.06
13581;BME280;6861;46.170;7.222;2023-03-16T13:29:54;95859.31;;;17.65;18.05
13581;BME280;6861;46.170;7.222;2023-03-16T13:32:24;95859.63;;;17.73;18.15
13581;BME280;6861;46.170;7.222;2023-03-16T13:34:57;95853.06;;;17.79;18.09
13581;BME280;6861;46.170;7.222;2023-03-16T13:37:27;95851.38;;;17.83;18.05
13581;BME280;6861;46.170;7.222;2023-03-16T13:39:57;95841.84;;;17.90;18.16